Walnut Hills, Ohio
Current Conditions -  °F | °C
As of 8:53 AM on Monday 22 Dec 2014 (Local Time) from KLUK Reporting Station
Broken Clouds Broken Clouds  
Wind Chill: 33°   Ceiling: 2700
Heat Index: 33°   Visibility: 8mi
Dew Point: 30°   Wind: 0mph
Humidity: 89%   Direction: NA
Pressure: 30.04"   Gusts: NA
Location:  39.1273°N, 84.4839°W
Report Text: KLUK 221353Z 00000KT 8SM BKN027 BKN033 BKN055 01/M01 A3004 RMK AO2 SLP177 T00061011
Loading
Personal Weather Stations






























Interactive Weather Map New forecast layout! Learn more

10-Day Weather Forecast

Advertisements
Track Severe Weather on mobile